Time;durP1;ratioP1;P1;durP2;ratioP2;P2;SDS_P1;SDS_P2;PMS_P1;PMS_P2;Temp;Humidity;BMP_temperature;BMP_pressure;BME280_temperature;BME280_humidity;BME280_pressure;Samples;Min_cycle;Max_cycle;Signal;HPM_P1;HPM_P2
2021/04/25 00:01:36;;;;;;;13.55;2.92;;;;;;;;;;5049581;28;20105;-64
2021/04/25 00:04:01;;;;;;;10.32;2.67;;;;;;;;;;5050156;28;20071;-64
2021/04/25 00:06:26;;;;;;;14.05;2.97;;;;;;;;;;5049581;28;20473;-63
2021/04/25 00:08:52;;;;;;;8.35;3.03;;;;;;;;;;5049514;28;20500;-64
2021/04/25 00:11:17;;;;;;;10.57;2.45;;;;;;;;;;5049640;28;20109;-64
2021/04/25 00:13:47;;;;;;;11.55;2.78;;;;;;;;;;5065788;22;20040;-86
2021/04/25 00:16:13;;;;;;;4.97;1.92;;;;;;;;;;5056641;28;20033;-86
2021/04/25 00:18:38;;;;;;;9.30;2.67;;;;;;;;;;5039085;28;20104;-86
2021/04/25 00:21:04;;;;;;;11.65;3.00;;;;;;;;;;5030161;28;20132;-86
2021/04/25 00:23:29;;;;;;;10.45;2.50;;;;;;;;;;5048191;28;20433;-86
2021/04/25 00:25:54;;;;;;;7.32;2.58;;;;;;;;;;5029988;28;20528;-86
2021/04/25 00:28:19;;;;;;;11.32;2.80;;;;;;;;;;5028594;28;20109;-86
2021/04/25 00:30:45;;;;;;;9.95;2.83;;;;;;;;;;5029890;28;20032;-86
2021/04/25 00:33:10;;;;;;;6.95;3.03;;;;;;;;;;5029887;28;20032;-87
2021/04/25 00:35:37;;;;;;;8.10;2.50;;;;;;;;;;5050680;28;20031;-86
2021/04/25 00:38:02;;;;;;;11.90;3.08;;;;;;;;;;5033218;28;20027;-86
2021/04/25 00:40:27;;;;;;;17.67;2.97;;;;;;;;;;5034094;28;20383;-87
2021/04/25 00:42:52;;;;;;;18.35;2.97;;;;;;;;;;5033290;28;20086;-87
2021/04/25 00:45:18;;;;;;;12.68;2.88;;;;;;;;;;5050454;28;20017;-86
2021/04/25 00:47:44;;;;;;;10.68;3.15;;;;;;;;;;5034120;28;20021;-87
2021/04/25 00:50:11;;;;;;;12.20;2.53;;;;;;;;;;5051904;28;20029;-86
2021/04/25 00:52:37;;;;;;;10.38;2.67;;;;;;;;;;5033686;28;20029;-86
2021/04/25 00:55:04;;;;;;;10.15;2.92;;;;;;;;;;5033704;28;20462;-86
2021/04/25 00:57:29;;;;;;;12.35;2.53;;;;;;;;;;5050009;28;20412;-86
2021/04/25 00:59:54;;;;;;;11.00;3.05;;;;;;;;;;5033353;28;20024;-86
2021/04/25 01:02:19;;;;;;;7.18;3.15;;;;;;;;;;5032697;28;20103;-86
2021/04/25 01:04:45;;;;;;;10.02;2.70;;;;;;;;;;5032727;28;20027;-86
2021/04/25 01:07:10;;;;;;;17.65;3.28;;;;;;;;;;5033021;28;20481;-86
2021/04/25 01:09:35;;;;;;;8.57;2.80;;;;;;;;;;5031738;28;20021;-86
2021/04/25 01:12:00;;;;;;;11.00;3.22;;;;;;;;;;5033296;28;20609;-87
2021/04/25 01:14:26;;;;;;;14.77;4.00;;;;;;;;;;5051241;28;20029;-86
2021/04/25 01:16:51;;;;;;;13.60;3.60;;;;;;;;;;5033166;28;20036;-86
2021/04/25 01:19:16;;;;;;;12.30;3.25;;;;;;;;;;5032473;28;20032;-87
2021/04/25 01:21:42;;;;;;;10.68;3.20;;;;;;;;;;5032714;28;20018;-87
2021/04/25 01:24:07;;;;;;;11.02;3.17;;;;;;;;;;5032510;28;20043;-87
2021/04/25 01:26:32;;;;;;;8.32;3.28;;;;;;;;;;5031217;28;20063;-86
2021/04/25 01:28:58;;;;;;;12.60;3.03;;;;;;;;;;5032667;28;20538;-87
2021/04/25 01:31:23;;;;;;;17.75;3.50;;;;;;;;;;5033414;28;20025;-87
2021/04/25 01:33:48;;;;;;;11.18;3.95;;;;;;;;;;5032028;28;20059;-86
2021/04/25 01:36:13;;;;;;;14.80;3.42;;;;;;;;;;5032335;28;20028;-86
2021/04/25 01:38:39;;;;;;;11.00;3.17;;;;;;;;;;5030821;28;20028;-86
2021/04/25 01:41:04;;;;;;;9.35;3.15;;;;;;;;;;5049910;28;20024;-87
2021/04/25 01:43:29;;;;;;;10.70;3.47;;;;;;;;;;5031791;28;20698;-87
2021/04/25 01:45:54;;;;;;;13.52;3.65;;;;;;;;;;5050358;28;20021;-86
2021/04/25 01:48:20;;;;;;;18.42;3.80;;;;;;;;;;5032245;28;20021;-87
2021/04/25 01:50:45;;;;;;;16.70;4.03;;;;;;;;;;5032159;28;20059;-88
2021/04/25 01:53:11;;;;;;;12.63;4.18;;;;;;;;;;5049687;28;20021;-86
2021/04/25 01:55:37;;;;;;;15.73;4.05;;;;;;;;;;5031426;28;20162;-87
2021/04/25 01:58:03;;;;;;;10.73;4.13;;;;;;;;;;5031811;28;20052;-86
2021/04/25 02:00:30;;;;;;;17.30;4.00;;;;;;;;;;5052731;28;20025;-86
2021/04/25 02:02:55;;;;;;;11.80;3.78;;;;;;;;;;5033869;28;20017;-86
2021/04/25 02:05:21;;;;;;;12.20;3.97;;;;;;;;;;5032749;28;20032;-86
2021/04/25 02:07:47;;;;;;;13.98;3.53;;;;;;;;;;5048944;28;20021;-86
2021/04/25 02:10:13;;;;;;;11.25;4.50;;;;;;;;;;5049483;28;20021;-86
2021/04/25 02:12:38;;;;;;;15.13;4.70;;;;;;;;;;5049066;28;20099;-86
2021/04/25 02:15:04;;;;;;;15.75;3.95;;;;;;;;;;5032368;28;20021;-87
2021/04/25 02:17:29;;;;;;;15.68;3.90;;;;;;;;;;5032626;28;20086;-86
2021/04/25 02:19:54;;;;;;;14.15;4.00;;;;;;;;;;5031280;28;20029;-87
2021/04/25 02:22:20;;;;;;;17.80;4.20;;;;;;;;;;5049281;28;20538;-86
2021/04/25 02:24:45;;;;;;;15.68;5.28;;;;;;;;;;5031917;28;20268;-87
2021/04/25 02:27:10;;;;;;;13.43;4.45;;;;;;;;;;5034012;28;20021;-87
2021/04/25 02:29:36;;;;;;;18.08;4.32;;;;;;;;;;5031037;28;20077;-87
2021/04/25 02:32:01;;;;;;;13.10;4.15;;;;;;;;;;5049881;28;20013;-87
2021/04/25 02:34:26;;;;;;;13.10;4.10;;;;;;;;;;5030727;28;20046;-87
2021/04/25 02:36:51;;;;;;;15.27;4.53;;;;;;;;;;5028598;28;20032;-86
2021/04/25 02:39:18;;;;;;;18.10;5.43;;;;;;;;;;5029521;28;20473;-86
2021/04/25 02:41:43;;;;;;;12.70;4.88;;;;;;;;;;5031162;28;20043;-86
2021/04/25 02:44:08;;;;;;;19.92;5.28;;;;;;;;;;5030719;28;20468;-86
2021/04/25 02:46:33;;;;;;;13.10;4.15;;;;;;;;;;5030959;28;20463;-86
2021/04/25 02:48:59;;;;;;;14.05;4.30;;;;;;;;;;5049044;28;20074;-86
2021/04/25 02:51:25;;;;;;;20.10;5.70;;;;;;;;;;5030531;28;20480;-87
2021/04/25 02:53:51;;;;;;;17.00;5.05;;;;;;;;;;5048823;28;20028;-86
2021/04/25 02:56:16;;;;;;;11.07;4.90;;;;;;;;;;5031091;28;20400;-86
2021/04/25 02:58:41;;;;;;;19.30;4.95;;;;;;;;;;5028804;28;20044;-86
2021/04/25 03:01:06;;;;;;;16.02;5.18;;;;;;;;;;5048387;28;20384;-86
2021/04/25 03:03:31;;;;;;;13.63;4.22;;;;;;;;;;5048850;28;20032;-86
2021/04/25 03:05:58;;;;;;;14.93;4.80;;;;;;;;;;5031230;28;20016;-86
2021/04/25 03:08:23;;;;;;;11.68;4.05;;;;;;;;;;5029929;28;20635;-86
2021/04/25 03:10:49;;;;;;;17.98;4.55;;;;;;;;;;5030375;28;20021;-87
2021/04/25 03:13:14;;;;;;;15.63;5.07;;;;;;;;;;5028809;28;20040;-86
2021/04/25 03:15:39;;;;;;;14.80;4.97;;;;;;;;;;5047925;28;20443;-86
2021/04/25 03:18:04;;;;;;;18.80;5.18;;;;;;;;;;5028606;28;20013;-86
2021/04/25 03:20:30;;;;;;;13.20;4.93;;;;;;;;;;5044334;28;20192;-87
2021/04/25 03:22:55;;;;;;;16.42;5.03;;;;;;;;;;5048083;28;20017;-86
2021/04/25 03:25:20;;;;;;;20.30;4.88;;;;;;;;;;5047532;28;20025;-86
2021/04/25 03:27:45;;;;;;;20.27;5.25;;;;;;;;;;5030256;28;20025;-86
2021/04/25 03:30:12;;;;;;;16.75;4.95;;;;;;;;;;5047778;28;20055;-86
2021/04/25 03:32:37;;;;;;;13.38;4.63;;;;;;;;;;5030428;28;20063;-86
2021/04/25 03:35:04;;;;;;;11.65;4.57;;;;;;;;;;5030062;28;20372;-87
2021/04/25 03:37:29;;;;;;;16.55;4.80;;;;;;;;;;5030854;28;20435;-86
2021/04/25 03:39:54;;;;;;;17.73;5.60;;;;;;;;;;5028678;28;20028;-86
2021/04/25 03:42:19;;;;;;;16.35;5.05;;;;;;;;;;5047489;28;20029;-87
2021/04/25 03:44:44;;;;;;;13.85;5.32;;;;;;;;;;5048144;28;20590;-86
2021/04/25 03:47:10;;;;;;;19.00;5.53;;;;;;;;;;5050060;28;20017;-86
2021/04/25 03:49:35;;;;;;;14.23;5.35;;;;;;;;;;5032054;28;20366;-86
2021/04/25 03:52:00;;;;;;;24.30;5.63;;;;;;;;;;5037287;28;20036;-86
2021/04/25 03:54:25;;;;;;;16.73;5.40;;;;;;;;;;5053244;28;20129;-86
2021/04/25 03:56:52;;;;;;;17.17;5.38;;;;;;;;;;5067329;28;20291;-86
2021/04/25 03:59:17;;;;;;;17.23;4.93;;;;;;;;;;5029866;28;20032;-86
2021/04/25 04:01:43;;;;;;;13.10;4.90;;;;;;;;;;5029901;28;20104;-87
2021/04/25 04:04:08;;;;;;;20.77;5.60;;;;;;;;;;5047772;28;20021;-87
2021/04/25 04:06:33;;;;;;;16.03;5.60;;;;;;;;;;5047959;28;20024;-87
2021/04/25 04:08:58;;;;;;;22.23;5.35;;;;;;;;;;5029447;28;20259;-86
2021/04/25 04:11:23;;;;;;;18.85;5.50;;;;;;;;;;5033686;28;20152;-87
2021/04/25 04:13:49;;;;;;;19.48;6.25;;;;;;;;;;5033179;28;20373;-86
2021/04/25 04:16:16;;;;;;;15.38;5.18;;;;;;;;;;5026657;28;20117;-84
2021/04/25 04:18:42;;;;;;;14.75;4.70;;;;;;;;;;5030793;28;20310;-86
2021/04/25 04:21:07;;;;;;;22.08;5.18;;;;;;;;;;5028987;28;20021;-86
2021/04/25 04:23:32;;;;;;;21.58;5.00;;;;;;;;;;5029992;28;20036;-86
2021/04/25 04:25:57;;;;;;;15.88;5.63;;;;;;;;;;5030408;28;20631;-86
2021/04/25 04:28:23;;;;;;;17.20;5.32;;;;;;;;;;5047624;28;20048;-87
2021/04/25 04:30:48;;;;;;;12.25;4.70;;;;;;;;;;5029385;28;20033;-86
2021/04/25 04:33:13;;;;;;;18.70;5.53;;;;;;;;;;5029983;28;20024;-87
2021/04/25 04:35:38;;;;;;;16.30;5.82;;;;;;;;;;5029610;28;20039;-87
2021/04/25 04:38:04;;;;;;;15.05;5.75;;;;;;;;;;5047716;28;20025;-86
2021/04/25 04:40:29;;;;;;;22.60;5.00;;;;;;;;;;5028991;28;20057;-86
2021/04/25 04:42:54;;;;;;;21.02;6.38;;;;;;;;;;5047022;28;20100;-86
2021/04/25 04:45:19;;;;;;;13.75;5.20;;;;;;;;;;5028981;28;20028;-86
2021/04/25 04:47:45;;;;;;;15.23;6.05;;;;;;;;;;5029578;28;20021;-86
2021/04/25 04:50:11;;;;;;;15.93;5.68;;;;;;;;;;5029574;28;20215;-86
2021/04/25 04:52:36;;;;;;;17.60;5.03;;;;;;;;;;5047305;28;20459;-86
2021/04/25 04:55:02;;;;;;;16.50;5.35;;;;;;;;;;5030240;28;20037;-86
2021/04/25 04:57:27;;;;;;;22.02;5.95;;;;;;;;;;5047774;28;20094;-86
2021/04/25 04:59:52;;;;;;;14.98;5.72;;;;;;;;;;5047953;28;20443;-87
2021/04/25 05:02:18;;;;;;;17.10;6.15;;;;;;;;;;5028569;28;20089;-87
2021/04/25 05:04:43;;;;;;;16.92;6.20;;;;;;;;;;5028440;28;20416;-87
2021/04/25 05:07:08;;;;;;;21.00;5.22;;;;;;;;;;5029034;28;20028;-87
2021/04/25 05:09:33;;;;;;;22.17;5.82;;;;;;;;;;5046814;28;20388;-87
2021/04/25 05:11:58;;;;;;;18.00;6.10;;;;;;;;;;5046505;28;20028;-86
2021/04/25 05:14:24;;;;;;;18.77;6.50;;;;;;;;;;5045810;28;20759;-86
2021/04/25 05:16:49;;;;;;;25.95;5.30;;;;;;;;;;5025596;28;20263;-86
2021/04/25 05:19:14;;;;;;;17.92;5.90;;;;;;;;;;5028662;28;20541;-86
2021/04/25 05:21:39;;;;;;;15.55;6.30;;;;;;;;;;5029115;28;20072;-86
2021/04/25 05:24:07;;;;;;;25.48;7.22;;;;;;;;;;5029520;28;20031;-86
2021/04/25 05:26:32;;;;;;;20.92;5.07;;;;;;;;;;5027835;28;20059;-86
2021/04/25 05:28:57;;;;;;;22.80;6.60;;;;;;;;;;5032813;28;20071;-86
2021/04/25 05:31:23;;;;;;;14.65;5.97;;;;;;;;;;5047200;28;20496;-86
2021/04/25 05:33:48;;;;;;;17.88;6.60;;;;;;;;;;5029698;28;20033;-87
2021/04/25 05:36:13;;;;;;;17.65;6.32;;;;;;;;;;5027876;28;20068;-86
2021/04/25 05:38:38;;;;;;;26.63;6.47;;;;;;;;;;5026794;28;20033;-86
2021/04/25 05:41:03;;;;;;;15.63;5.72;;;;;;;;;;5048012;28;20033;-86
2021/04/25 05:43:29;;;;;;;18.23;5.30;;;;;;;;;;5049327;28;20048;-86
2021/04/25 05:45:54;;;;;;;21.23;6.70;;;;;;;;;;5037256;28;20492;-86
2021/04/25 05:48:19;;;;;;;18.58;8.20;;;;;;;;;;5040717;28;20096;-86
2021/04/25 05:50:44;;;;;;;20.15;6.57;;;;;;;;;;5042655;28;20178;-86
2021/04/25 05:53:09;;;;;;;23.33;8.52;;;;;;;;;;5037439;28;20052;-86
2021/04/25 05:55:35;;;;;;;20.88;6.88;;;;;;;;;;5037020;28;20530;-86
2021/04/25 05:58:00;;;;;;;18.58;7.55;;;;;;;;;;5034615;28;20025;-86
2021/04/25 06:00:28;;;;;;;31.20;6.40;;;;;;;;;;5033648;28;20027;-87
2021/04/25 06:02:53;;;;;;;16.98;6.88;;;;;;;;;;5032701;28;20522;-86
2021/04/25 06:05:19;;;;;;;26.92;7.88;;;;;;;;;;5031106;28;20123;-86
2021/04/25 06:07:45;;;;;;;17.88;6.68;;;;;;;;;;5031474;28;20024;-86
2021/04/25 06:10:11;;;;;;;20.88;6.80;;;;;;;;;;5029635;28;20082;-86
2021/04/25 06:12:36;;;;;;;19.38;6.93;;;;;;;;;;5036161;28;20442;-87
2021/04/25 06:15:03;;;;;;;26.35;7.90;;;;;;;;;;5087312;23;20040;-64
2021/04/25 06:17:28;;;;;;;17.17;6.82;;;;;;;;;;5083824;23;20079;-64
2021/04/25 06:19:53;;;;;;;30.77;8.77;;;;;;;;;;5050775;28;20578;-63
2021/04/25 06:22:18;;;;;;;20.08;7.30;;;;;;;;;;5049646;28;20266;-64
2021/04/25 06:24:44;;;;;;;21.48;6.60;;;;;;;;;;5045706;28;20274;-64
2021/04/25 06:27:09;;;;;;;20.45;6.28;;;;;;;;;;5050261;28;20037;-65
2021/04/25 06:29:34;;;;;;;18.13;7.03;;;;;;;;;;5038037;28;20029;-65
2021/04/25 06:32:00;;;;;;;16.05;6.97;;;;;;;;;;5038095;28;20021;-65
2021/04/25 06:34:25;;;;;;;25.52;7.97;;;;;;;;;;5050735;28;20020;-65
2021/04/25 06:36:50;;;;;;;25.85;8.90;;;;;;;;;;5050010;28;20476;-65
2021/04/25 06:39:16;;;;;;;18.88;7.40;;;;;;;;;;5049987;28;20032;-64
2021/04/25 06:41:41;;;;;;;15.95;8.20;;;;;;;;;;5050729;28;20017;-64
2021/04/25 06:44:07;;;;;;;23.07;7.60;;;;;;;;;;5047447;28;20129;-64
2021/04/25 06:46:32;;;;;;;18.45;7.13;;;;;;;;;;5056495;28;20288;-64
2021/04/25 06:48:57;;;;;;;20.25;8.60;;;;;;;;;;5049297;28;20493;-63
2021/04/25 06:51:22;;;;;;;25.42;8.20;;;;;;;;;;5048437;28;20513;-63
2021/04/25 06:53:48;;;;;;;19.15;7.88;;;;;;;;;;5043789;28;20083;-64
2021/04/25 06:56:13;;;;;;;18.15;7.97;;;;;;;;;;5046699;28;20113;-63
2021/04/25 06:58:38;;;;;;;17.88;7.03;;;;;;;;;;5048350;28;20028;-64
2021/04/25 07:01:04;;;;;;;19.27;6.70;;;;;;;;;;5048460;28;20100;-63
2021/04/25 07:03:29;;;;;;;16.60;7.28;;;;;;;;;;5048508;28;20256;-63
2021/04/25 07:05:54;;;;;;;16.73;6.50;;;;;;;;;;5047552;28;20100;-63
2021/04/25 07:08:23;;;;;;;17.40;7.35;;;;;;;;;;5047257;28;20522;-63
2021/04/25 07:10:48;;;;;;;20.35;6.72;;;;;;;;;;5047613;28;20412;-63
2021/04/25 07:13:13;;;;;;;18.87;6.73;;;;;;;;;;5048339;28;20033;-63
2021/04/25 07:15:38;;;;;;;21.60;7.37;;;;;;;;;;5047796;28;20406;-66
2021/04/25 07:18:04;;;;;;;18.93;7.67;;;;;;;;;;5047438;28;20271;-64
2021/04/25 07:20:29;;;;;;;11.10;6.07;;;;;;;;;;5049916;28;20351;-64
2021/04/25 07:22:54;;;;;;;12.17;6.80;;;;;;;;;;5047680;28;20501;-64
2021/04/25 07:25:19;;;;;;;15.77;6.38;;;;;;;;;;5047780;28;20263;-64
2021/04/25 07:27:44;;;;;;;14.63;7.13;;;;;;;;;;5046955;28;20035;-64
2021/04/25 07:30:10;;;;;;;14.02;6.40;;;;;;;;;;5046730;28;20688;-64
2021/04/25 07:32:36;;;;;;;13.18;7.13;;;;;;;;;;5048001;28;20489;-64
2021/04/25 07:35:01;;;;;;;12.82;6.57;;;;;;;;;;5046437;28;20028;-64
2021/04/25 07:37:27;;;;;;;15.05;7.45;;;;;;;;;;5048293;28;20377;-64
2021/04/25 07:39:52;;;;;;;14.68;5.75;;;;;;;;;;5030004;28;20022;-64
2021/04/25 07:42:18;;;;;;;12.50;7.20;;;;;;;;;;5037948;28;20473;-64
2021/04/25 07:44:43;;;;;;;12.57;6.35;;;;;;;;;;5047749;28;20255;-64
2021/04/25 07:47:09;;;;;;;16.23;7.22;;;;;;;;;;5047544;28;20713;-64
2021/04/25 07:49:34;;;;;;;13.32;7.05;;;;;;;;;;5044778;28;20025;-64
2021/04/25 07:51:59;;;;;;;17.73;6.80;;;;;;;;;;5051632;28;20374;-64
2021/04/25 07:54:26;;;;;;;15.90;7.30;;;;;;;;;;5042722;28;20278;-65
2021/04/25 07:56:52;;;;;;;15.25;7.28;;;;;;;;;;5046035;28;20116;-65
2021/04/25 07:59:17;;;;;;;15.48;7.05;;;;;;;;;;5042745;28;20116;-64
2021/04/25 08:01:42;;;;;;;13.85;7.13;;;;;;;;;;5045896;28;20033;-66
2021/04/25 08:04:07;;;;;;;10.40;5.47;;;;;;;;;;5041746;28;20037;-64
2021/04/25 08:06:32;;;;;;;11.77;7.00;;;;;;;;;;5045918;28;20259;-64
2021/04/25 08:08:57;;;;;;;12.23;7.37;;;;;;;;;;5039682;28;20461;-64
2021/04/25 08:11:23;;;;;;;12.20;7.17;;;;;;;;;;5036568;28;20271;-65
2021/04/25 08:13:49;;;;;;;18.88;7.50;;;;;;;;;;5047313;28;20250;-65
2021/04/25 08:16:14;;;;;;;14.55;7.75;;;;;;;;;;5047366;28;20025;-65
2021/04/25 08:18:39;;;;;;;13.68;8.00;;;;;;;;;;5045157;28;20037;-64
2021/04/25 08:21:05;;;;;;;16.77;8.60;;;;;;;;;;5043858;28;20324;-64
2021/04/25 08:23:30;;;;;;;17.35;9.68;;;;;;;;;;5040600;28;20189;-64
2021/04/25 08:25:56;;;;;;;13.05;8.77;;;;;;;;;;5044661;28;20040;-64
2021/04/25 08:28:21;;;;;;;15.20;8.73;;;;;;;;;;5047124;28;20115;-64
2021/04/25 08:30:46;;;;;;;16.57;9.57;;;;;;;;;;5047111;28;20112;-64
2021/04/25 08:33:12;;;;;;;18.42;9.48;;;;;;;;;;5047489;28;20931;-64
2021/04/25 08:35:37;;;;;;;15.93;9.27;;;;;;;;;;5045048;28;20271;-64
2021/04/25 08:38:02;;;;;;;16.13;8.57;;;;;;;;;;5043901;28;20087;-66
2021/04/25 08:40:27;;;;;;;15.00;7.53;;;;;;;;;;5027915;28;20256;-65
2021/04/25 08:42:53;;;;;;;12.98;7.25;;;;;;;;;;5042712;28;20337;-64
2021/04/25 08:45:18;;;;;;;13.75;6.35;;;;;;;;;;5054877;28;20025;-64
2021/04/25 08:47:49;;;;;;;19.70;6.82;;;;;;;;;;5042052;28;20112;-63
2021/04/25 08:50:15;;;;;;;14.07;7.00;;;;;;;;;;5045992;28;20025;-63
2021/04/25 08:52:40;;;;;;;11.25;6.00;;;;;;;;;;5047692;28;20127;-64
2021/04/25 08:55:05;;;;;;;16.20;6.30;;;;;;;;;;5047252;28;20025;-63
2021/04/25 08:57:31;;;;;;;16.10;6.07;;;;;;;;;;5051555;28;20021;-64
2021/04/25 08:59:56;;;;;;;14.68;6.60;;;;;;;;;;5050946;28;20047;-64
2021/04/25 09:02:21;;;;;;;17.48;7.22;;;;;;;;;;5046082;28;20102;-65
2021/04/25 09:04:46;;;;;;;14.57;6.43;;;;;;;;;;5043582;28;20263;-66
2021/04/25 09:07:15;;;;;;;13.70;5.90;;;;;;;;;;5043168;28;20276;-64
2021/04/25 09:09:45;;;;;;;15.82;8.18;;;;;;;;;;5040337;28;20123;-64
2021/04/25 09:12:12;;;;;;;14.87;8.50;;;;;;;;;;5050040;28;20037;-64
2021/04/25 09:14:38;;;;;;;17.30;9.77;;;;;;;;;;5047431;28;20088;-64
2021/04/25 09:17:04;;;;;;;16.95;9.45;;;;;;;;;;5038308;28;20022;-64
2021/04/25 09:19:48;;;;;;;17.77;8.90;;;;;;;;;;5049726;28;20025;-63
2021/04/25 09:22:13;;;;;;;17.75;7.65;;;;;;;;;;5037133;28;20482;-64
2021/04/25 09:24:39;;;;;;;15.57;7.10;;;;;;;;;;5049392;28;20021;-65
2021/04/25 09:27:04;;;;;;;15.88;7.20;;;;;;;;;;5049956;28;20021;-65
2021/04/25 09:29:47;;;;;;;13.20;7.70;;;;;;;;;;5050769;28;20453;-64
2021/04/25 09:32:20;;;;;;;14.43;6.65;;;;;;;;;;5050019;28;20036;-65
2021/04/25 09:34:45;;;;;;;12.38;7.45;;;;;;;;;;5045793;28;20055;-65
2021/04/25 09:37:11;;;;;;;13.88;6.65;;;;;;;;;;5059204;28;20060;-63
2021/04/25 09:39:37;;;;;;;17.35;7.95;;;;;;;;;;5044425;28;20017;-63
2021/04/25 09:42:03;;;;;;;14.95;8.75;;;;;;;;;;5043968;28;20028;-63
2021/04/25 09:44:37;;;;;;;18.33;9.10;;;;;;;;;;5034754;28;20021;-63
2021/04/25 09:47:04;;;;;;;16.65;7.60;;;;;;;;;;5046263;28;20432;-63
2021/04/25 09:49:41;;;;;;;14.02;7.10;;;;;;;;;;5041130;28;20063;-64
2021/04/25 09:52:08;;;;;;;16.08;7.95;;;;;;;;;;5045139;28;20021;-64
2021/04/25 09:54:33;;;;;;;14.82;7.50;;;;;;;;;;5040356;28;20035;-63
2021/04/25 09:56:59;;;;;;;13.63;6.05;;;;;;;;;;5049073;28;20017;-63
2021/04/25 09:59:24;;;;;;;13.00;6.95;;;;;;;;;;5048810;28;20017;-64
2021/04/25 10:01:59;;;;;;;13.37;7.57;;;;;;;;;;5049423;28;20025;-64
2021/04/25 10:04:35;;;;;;;12.63;7.25;;;;;;;;;;5049439;28;20260;-64
2021/04/25 10:07:01;;;;;;;12.25;7.15;;;;;;;;;;5038140;28;20441;-63
2021/04/25 10:09:28;;;;;;;14.65;7.10;;;;;;;;;;5050278;28;20041;-64
2021/04/25 10:11:55;;;;;;;18.63;7.57;;;;;;;;;;5047170;28;20057;-64
2021/04/25 10:14:21;;;;;;;18.42;7.53;;;;;;;;;;5050915;28;20017;-64
2021/04/25 10:16:46;;;;;;;13.70;6.78;;;;;;;;;;5051442;28;20029;-64
2021/04/25 10:19:13;;;;;;;11.85;6.93;;;;;;;;;;5049412;28;20453;-64
2021/04/25 10:21:38;;;;;;;11.55;6.78;;;;;;;;;;5050977;28;20013;-64
2021/04/25 10:24:04;;;;;;;13.95;7.90;;;;;;;;;;5049694;28;20031;-64
2021/04/25 10:26:31;;;;;;;13.23;6.85;;;;;;;;;;5049870;28;20056;-65
2021/04/25 10:29:00;;;;;;;18.38;7.57;;;;;;;;;;5050412;28;20013;-65
2021/04/25 10:31:30;;;;;;;18.45;6.88;;;;;;;;;;5051548;28;20032;-66
2021/04/25 10:33:58;;;;;;;15.55;6.82;;;;;;;;;;5049532;28;20032;-63
2021/04/25 10:36:24;;;;;;;15.27;7.03;;;;;;;;;;5051014;28;20025;-64
2021/04/25 10:38:49;;;;;;;14.38;7.82;;;;;;;;;;5049344;28;20048;-62
2021/04/25 10:41:22;;;;;;;15.75;8.00;;;;;;;;;;5051241;28;20037;-64
2021/04/25 10:43:56;;;;;;;19.85;11.07;;;;;;;;;;5050987;28;20074;-64
2021/04/25 10:46:21;;;;;;;15.52;9.00;;;;;;;;;;5050379;28;20024;-64
2021/04/25 10:48:49;;;;;;;15.90;8.23;;;;;;;;;;5050234;28;20029;-64
2021/04/25 10:51:14;;;;;;;24.08;9.38;;;;;;;;;;5049923;28;20295;-64
2021/04/25 10:53:42;;;;;;;19.40;8.45;;;;;;;;;;5050294;28;20122;-64
2021/04/25 10:56:13;;;;;;;16.08;8.80;;;;;;;;;;5050569;28;20079;-64
2021/04/25 10:58:42;;;;;;;15.80;8.45;;;;;;;;;;5049541;28;20373;-64
2021/04/25 11:01:08;;;;;;;15.63;8.80;;;;;;;;;;5050427;28;20104;-64
2021/04/25 11:03:33;;;;;;;20.80;9.23;;;;;;;;;;5049527;28;20112;-64
2021/04/25 11:05:58;;;;;;;14.60;8.82;;;;;;;;;;5049678;28;20451;-64
2021/04/25 11:08:30;;;;;;;17.40;8.07;;;;;;;;;;5049678;28;20021;-66
2021/04/25 11:10:59;;;;;;;15.30;8.63;;;;;;;;;;5049630;28;20362;-64
2021/04/25 11:13:36;;;;;;;12.27;8.55;;;;;;;;;;5038268;28;20021;-65
2021/04/25 11:16:02;;;;;;;16.83;8.13;;;;;;;;;;5049768;28;20048;-65
2021/04/25 11:18:43;;;;;;;15.00;9.13;;;;;;;;;;5048608;28;20057;-64
2021/04/25 11:21:30;;;;;;;11.30;8.30;;;;;;;;;;5050463;28;20021;-65
2021/04/25 11:23:57;;;;;;;17.52;9.43;;;;;;;;;;5050223;28;20492;-66
2021/04/25 11:26:34;;;;;;;19.40;8.98;;;;;;;;;;5049883;28;20115;-65
2021/04/25 11:29:20;;;;;;;15.75;8.05;;;;;;;;;;5047492;28;20021;-64
2021/04/25 11:31:50;;;;;;;16.98;8.63;;;;;;;;;;5037036;28;20029;-65
2021/04/25 11:34:38;;;;;;;14.10;8.70;;;;;;;;;;5048922;28;20033;-65
2021/04/25 11:37:07;;;;;;;16.58;9.73;;;;;;;;;;5029746;28;20090;-64
2021/04/25 11:39:34;;;;;;;21.75;11.43;;;;;;;;;;5049532;28;20481;-64
2021/04/25 11:42:00;;;;;;;16.13;9.98;;;;;;;;;;5050469;28;20021;-65
2021/04/25 11:44:28;;;;;;;17.23;10.05;;;;;;;;;;5049948;28;20017;-64
2021/04/25 11:46:54;;;;;;;17.75;9.48;;;;;;;;;;5045816;28;20017;-65
2021/04/25 11:49:35;;;;;;;16.50;10.00;;;;;;;;;;5036825;28;20013;-64
2021/04/25 11:52:06;;;;;;;17.77;9.35;;;;;;;;;;5048539;28;20032;-65
2021/04/25 11:54:32;;;;;;;22.00;9.80;;;;;;;;;;5049910;28;20075;-65
2021/04/25 11:57:06;;;;;;;19.20;9.55;;;;;;;;;;5049814;28;20029;-65
2021/04/25 11:59:31;;;;;;;18.73;9.32;;;;;;;;;;5043442;28;20437;-65
2021/04/25 12:02:09;;;;;;;18.63;8.93;;;;;;;;;;5047728;28;20092;-65
2021/04/25 12:04:53;;;;;;;15.52;8.32;;;;;;;;;;5048658;28;20266;-64
2021/04/25 12:07:37;;;;;;;17.27;9.07;;;;;;;;;;5049515;28;20021;-66
2021/04/25 12:10:13;;;;;;;13.88;8.70;;;;;;;;;;5050735;28;20021;-64
2021/04/25 12:12:57;;;;;;;15.98;9.07;;;;;;;;;;5048406;28;20389;-65
2021/04/25 12:15:24;;;;;;;16.13;8.23;;;;;;;;;;5029521;28;20040;-66
2021/04/25 12:17:53;;;;;;;15.40;8.60;;;;;;;;;;5056403;23;20110;-68
2021/04/25 12:20:18;;;;;;;17.80;10.02;;;;;;;;;;5039397;28;20067;-68
2021/04/25 12:22:44;;;;;;;18.25;8.38;;;;;;;;;;5029542;28;20021;-69
2021/04/25 12:25:09;;;;;;;17.00;8.55;;;;;;;;;;5047122;28;20493;-69
2021/04/25 12:27:34;;;;;;;15.40;8.13;;;;;;;;;;5044891;28;20053;-68
2021/04/25 12:30:00;;;;;;;11.13;6.93;;;;;;;;;;5049283;28;20487;-69
2021/04/25 12:32:25;;;;;;;14.73;8.13;;;;;;;;;;5053149;28;20282;-68
2021/04/25 12:34:54;;;;;;;17.43;7.70;;;;;;;;;;5047261;28;20013;-69
2021/04/25 12:37:33;;;;;;;14.45;7.85;;;;;;;;;;5051713;28;20279;-68
2021/04/25 12:39:58;;;;;;;16.05;8.07;;;;;;;;;;5052933;28;20020;-70
2021/04/25 12:42:23;;;;;;;17.60;7.80;;;;;;;;;;5051505;28;20108;-68
2021/04/25 12:44:48;;;;;;;13.65;6.90;;;;;;;;;;5053414;28;20724;-69
2021/04/25 12:47:13;;;;;;;13.60;7.22;;;;;;;;;;5053042;28;20432;-68
2021/04/25 12:49:39;;;;;;;17.08;6.70;;;;;;;;;;5052013;28;20052;-68
2021/04/25 12:52:06;;;;;;;15.88;6.45;;;;;;;;;;5052870;28;20358;-67
2021/04/25 12:54:42;;;;;;;12.20;7.43;;;;;;;;;;5053057;28;20530;-67
2021/04/25 12:57:07;;;;;;;10.77;5.63;;;;;;;;;;5046198;28;20039;-68
2021/04/25 12:59:34;;;;;;;12.52;7.22;;;;;;;;;;5044819;28;20088;-67
2021/04/25 13:01:59;;;;;;;13.95;5.85;;;;;;;;;;5044929;28;20021;-67
2021/04/25 13:04:29;;;;;;;12.63;5.50;;;;;;;;;;5054425;28;20025;-67
2021/04/25 13:07:12;;;;;;;16.50;5.47;;;;;;;;;;5051554;28;20022;-67
2021/04/25 13:09:38;;;;;;;12.05;5.18;;;;;;;;;;5050085;28;20024;-67
2021/04/25 13:12:23;;;;;;;9.23;5.05;;;;;;;;;;5052361;28;20023;-67
2021/04/25 13:14:49;;;;;;;12.30;5.15;;;;;;;;;;5029700;28;20052;-68
2021/04/25 13:17:21;;;;;;;14.38;4.75;;;;;;;;;;5057792;28;20032;-68
2021/04/25 13:19:46;;;;;;;11.82;4.65;;;;;;;;;;5058900;28;20020;-69
2021/04/25 13:22:11;;;;;;;11.17;4.73;;;;;;;;;;5049372;28;20126;-68
2021/04/25 13:24:36;;;;;;;12.82;4.68;;;;;;;;;;5052216;28;20271;-68
2021/04/25 13:27:02;;;;;;;8.40;3.93;;;;;;;;;;5054000;28;20039;-69
2021/04/25 13:29:27;;;;;;;15.43;5.17;;;;;;;;;;5066859;28;20685;-69
2021/04/25 13:31:52;;;;;;;10.17;4.50;;;;;;;;;;5054680;28;20275;-69
2021/04/25 13:34:17;;;;;;;12.95;4.60;;;;;;;;;;5057160;28;20608;-68
2021/04/25 13:36:43;;;;;;;13.23;4.70;;;;;;;;;;5059197;28;20021;-68
2021/04/25 13:39:09;;;;;;;6.28;4.00;;;;;;;;;;5069506;28;20024;-68
2021/04/25 13:41:39;;;;;;;5.95;4.40;;;;;;;;;;5052568;28;20024;-68
2021/04/25 13:44:04;;;;;;;8.05;4.53;;;;;;;;;;5049704;28;20040;-67
2021/04/25 13:46:30;;;;;;;10.75;3.83;;;;;;;;;;5062469;28;20465;-68
2021/04/25 13:48:56;;;;;;;8.95;4.30;;;;;;;;;;5044248;28;20381;-67
2021/04/25 13:51:21;;;;;;;12.27;5.07;;;;;;;;;;5045021;28;20033;-68
2021/04/25 13:53:46;;;;;;;9.18;4.20;;;;;;;;;;5051051;28;20270;-69
2021/04/25 13:56:11;;;;;;;11.07;5.00;;;;;;;;;;5055292;28;20032;-68
2021/04/25 13:58:36;;;;;;;14.38;5.05;;;;;;;;;;5049306;28;20268;-68
2021/04/25 14:01:02;;;;;;;9.43;4.60;;;;;;;;;;5044759;28;20104;-68
2021/04/25 14:03:27;;;;;;;12.35;5.57;;;;;;;;;;5056998;28;20267;-68
2021/04/25 14:05:53;;;;;;;8.10;4.00;;;;;;;;;;5057312;28;20062;-68
2021/04/25 14:08:18;;;;;;;7.72;4.88;;;;;;;;;;5051460;28;20063;-68
2021/04/25 14:10:44;;;;;;;15.40;5.78;;;;;;;;;;5051895;28;20025;-68
2021/04/25 14:13:09;;;;;;;14.85;6.00;;;;;;;;;;5053799;28;20027;-68
2021/04/25 14:15:35;;;;;;;15.80;5.88;;;;;;;;;;5063304;28;20025;-68
2021/04/25 14:18:00;;;;;;;12.27;5.28;;;;;;;;;;5051231;28;20112;-69
2021/04/25 14:20:26;;;;;;;15.73;6.30;;;;;;;;;;5046959;28;20043;-69
2021/04/25 14:22:51;;;;;;;22.88;7.68;;;;;;;;;;5055620;28;20423;-69
2021/04/25 14:25:17;;;;;;;13.52;5.93;;;;;;;;;;5061098;28;20021;-70
2021/04/25 14:27:43;;;;;;;14.75;5.53;;;;;;;;;;5061013;28;20238;-69